sensor_id;sensor_type;location;lat;lon;timestamp;pressure;altitude;pressure_sealevel;temperature;humidity
43364;BME280;40636;52.424;-1.948;2023-02-03T00:01:29;100917.59;;;7.79;100.00
43364;BME280;40636;52.424;-1.948;2023-02-03T00:03:56;100922.03;;;7.74;100.00
43364;BME280;40636;52.424;-1.948;2023-02-03T00:06:22;100923.06;;;7.79;100.00
43364;BME280;40636;52.424;-1.948;2023-02-03T00:08:52;100932.75;;;7.82;100.00
43364;BME280;40636;52.424;-1.948;2023-02-03T00:11:20;100933.59;;;7.82;100.00
43364;BME280;40636;52.424;-1.948;2023-02-03T00:13:47;100923.28;;;7.84;100.00
43364;BME280;40636;52.424;-1.948;2023-02-03T00:16:14;100924.75;;;7.80;100.00
43364;BME280;40636;52.424;-1.948;2023-02-03T00:18:40;100919.91;;;7.76;100.00
43364;BME280;40636;52.424;-1.948;2023-02-03T00:21:07;100920.97;;;7.75;100.00
43364;BME280;40636;52.424;-1.948;2023-02-03T00:23:34;100926.44;;;7.75;100.00
43364;BME280;40636;52.424;-1.948;2023-02-03T00:26:08;100933.56;;;7.76;100.00
43364;BME280;40636;52.424;-1.948;2023-02-03T00:28:35;100937.34;;;7.75;100.00
43364;BME280;40636;52.424;-1.948;2023-02-03T00:31:03;100947.84;;;7.71;100.00
43364;BME280;40636;52.424;-1.948;2023-02-03T00:33:30;100958.78;;;7.65;100.00
43364;BME280;40636;52.424;-1.948;2023-02-03T00:35:56;100955.81;;;7.59;100.00
43364;BME280;40636;52.424;-1.948;2023-02-03T00:38:26;100960.00;;;7.55;100.00
43364;BME280;40636;52.424;-1.948;2023-02-03T00:40:53;100964.00;;;7.53;100.00
43364;BME280;40636;52.424;-1.948;2023-02-03T00:43:20;100961.69;;;7.50;100.00
43364;BME280;40636;52.424;-1.948;2023-02-03T00:45:47;100954.13;;;7.45;100.00
43364;BME280;40636;52.424;-1.948;2023-02-03T00:48:14;100963.56;;;7.49;100.00
43364;BME280;40636;52.424;-1.948;2023-02-03T00:50:40;100946.75;;;7.46;100.00
43364;BME280;40636;52.424;-1.948;2023-02-03T00:53:07;100952.00;;;7.47;100.00
43364;BME280;40636;52.424;-1.948;2023-02-03T00:55:34;100956.41;;;7.48;100.00
43364;BME280;40636;52.424;-1.948;2023-02-03T00:58:00;100963.56;;;7.49;100.00
43364;BME280;40636;52.424;-1.948;2023-02-03T01:00:27;100956.63;;;7.53;100.00
43364;BME280;40636;52.424;-1.948;2023-02-03T01:02:54;100961.25;;;7.53;100.00
43364;BME280;40636;52.424;-1.948;2023-02-03T01:05:20;100954.97;;;7.52;100.00
43364;BME280;40636;52.424;-1.948;2023-02-03T01:07:47;100959.16;;;7.48;100.00
43364;BME280;40636;52.424;-1.948;2023-02-03T01:10:14;100951.78;;;7.49;100.00
43364;BME280;40636;52.424;-1.948;2023-02-03T01:12:41;100957.47;;;7.47;100.00
43364;BME280;40636;52.424;-1.948;2023-02-03T01:15:08;100957.25;;;7.49;100.00
43364;BME280;40636;52.424;-1.948;2023-02-03T01:17:34;100959.16;;;7.48;100.00
43364;BME280;40636;52.424;-1.948;2023-02-03T01:20:01;100953.50;;;7.50;100.00
43364;BME280;40636;52.424;-1.948;2023-02-03T01:22:29;100948.88;;;7.50;100.00
43364;BME280;40636;52.424;-1.948;2023-02-03T01:24:56;100943.81;;;7.47;100.00
43364;BME280;40636;52.424;-1.948;2023-02-03T01:27:23;100962.09;;;7.47;100.00
43364;BME280;40636;52.424;-1.948;2023-02-03T01:29:49;100965.25;;;7.50;100.00
43364;BME280;40636;52.424;-1.948;2023-02-03T01:32:16;100968.00;;;7.50;100.00
43364;BME280;40636;52.424;-1.948;2023-02-03T01:34:43;100964.22;;;7.51;100.00
43364;BME280;40636;52.424;-1.948;2023-02-03T01:37:09;100969.00;;;7.49;100.00
43364;BME280;40636;52.424;-1.948;2023-02-03T01:39:36;100972.41;;;7.51;100.00
43364;BME280;40636;52.424;-1.948;2023-02-03T01:42:03;100966.28;;;7.49;100.00
43364;BME280;40636;52.424;-1.948;2023-02-03T01:44:55;100970.72;;;7.50;100.00
43364;BME280;40636;52.424;-1.948;2023-02-03T01:47:36;100963.75;;;7.48;100.00
43364;BME280;40636;52.424;-1.948;2023-02-03T01:50:21;100971.75;;;7.49;100.00
43364;BME280;40636;52.424;-1.948;2023-02-03T01:52:55;100969.66;;;7.51;100.00
43364;BME280;40636;52.424;-1.948;2023-02-03T01:55:29;100966.72;;;7.53;100.00
43364;BME280;40636;52.424;-1.948;2023-02-03T01:58:05;100969.66;;;7.51;100.00
43364;BME280;40636;52.424;-1.948;2023-02-03T02:00:34;100967.56;;;7.53;100.00
43364;BME280;40636;52.424;-1.948;2023-02-03T02:03:01;100957.69;;;7.52;100.00
43364;BME280;40636;52.424;-1.948;2023-02-03T02:05:33;100970.09;;;7.55;100.00
43364;BME280;40636;52.424;-1.948;2023-02-03T02:08:01;100960.84;;;7.62;100.00
43364;BME280;40636;52.424;-1.948;2023-02-03T02:10:30;100964.47;;;7.70;100.00
43364;BME280;40636;52.424;-1.948;2023-02-03T02:12:57;100969.31;;;7.74;100.00
43364;BME280;40636;52.424;-1.948;2023-02-03T02:18:23;100967.84;;;7.85;100.00
43364;BME280;40636;52.424;-1.948;2023-02-03T02:27:04;100967.63;;;7.80;100.00
43364;BME280;40636;52.424;-1.948;2023-02-03T02:32:47;100962.16;;;7.73;100.00
43364;BME280;40636;52.424;-1.948;2023-02-03T02:35:48;100968.06;;;7.77;100.00
43364;BME280;40636;52.424;-1.948;2023-02-03T02:38:27;100980.66;;;7.84;100.00
43364;BME280;40636;52.424;-1.948;2023-02-03T02:43:56;100976.50;;;7.95;100.00
43364;BME280;40636;52.424;-1.948;2023-02-03T02:46:31;100986.81;;;8.00;100.00
43364;BME280;40636;52.424;-1.948;2023-02-03T02:49:08;100984.72;;;8.08;100.00
43364;BME280;40636;52.424;-1.948;2023-02-03T02:51:39;100981.34;;;8.13;100.00
43364;BME280;40636;52.424;-1.948;2023-02-03T02:54:07;100989.34;;;8.21;100.00
43364;BME280;40636;52.424;-1.948;2023-02-03T02:56:38;100997.97;;;8.25;100.00
43364;BME280;40636;52.424;-1.948;2023-02-03T02:59:06;100997.56;;;8.28;100.00
43364;BME280;40636;52.424;-1.948;2023-02-03T03:01:33;100992.28;;;8.33;100.00
43364;BME280;40636;52.424;-1.948;2023-02-03T03:04:03;100991.88;;;8.36;100.00
43364;BME280;40636;52.424;-1.948;2023-02-03T03:06:36;100982.22;;;8.40;100.00
43364;BME280;40636;52.424;-1.948;2023-02-03T03:11:38;100990.66;;;8.45;100.00
43364;BME280;40636;52.424;-1.948;2023-02-03T03:14:08;100987.06;;;8.51;100.00
43364;BME280;40636;52.424;-1.948;2023-02-03T03:16:37;100985.78;;;8.54;100.00
43364;BME280;40636;52.424;-1.948;2023-02-03T03:19:08;100990.00;;;8.56;100.00
43364;BME280;40636;52.424;-1.948;2023-02-03T03:21:46;100998.22;;;8.56;100.00
43364;BME280;40636;52.424;-1.948;2023-02-03T03:24:19;100987.03;;;8.58;100.00
43364;BME280;40636;52.424;-1.948;2023-02-03T03:26:55;100988.75;;;8.59;100.00
43364;BME280;40636;52.424;-1.948;2023-02-03T03:29:29;100993.78;;;8.62;100.00
43364;BME280;40636;52.424;-1.948;2023-02-03T03:32:01;100990.84;;;8.63;100.00
43364;BME280;40636;52.424;-1.948;2023-02-03T03:34:29;101008.94;;;8.64;100.00
43364;BME280;40636;52.424;-1.948;2023-02-03T03:37:01;101005.56;;;8.62;100.00
43364;BME280;40636;52.424;-1.948;2023-02-03T03:39:46;100985.38;;;8.63;100.00
43364;BME280;40636;52.424;-1.948;2023-02-03T03:42:44;100967.69;;;8.59;100.00
43364;BME280;40636;52.424;-1.948;2023-02-03T03:50:29;100990.41;;;8.60;100.00
43364;BME280;40636;52.424;-1.948;2023-02-03T03:52:59;100995.66;;;8.61;100.00
43364;BME280;40636;52.424;-1.948;2023-02-03T03:55:28;101003.47;;;8.64;100.00
43364;BME280;40636;52.424;-1.948;2023-02-03T03:58:03;100989.56;;;8.66;100.00
43364;BME280;40636;52.424;-1.948;2023-02-03T04:00:33;100989.56;;;8.66;100.00
43364;BME280;40636;52.424;-1.948;2023-02-03T04:03:24;100987.88;;;8.72;100.00
43364;BME280;40636;52.424;-1.948;2023-02-03T04:05:54;100986.19;;;8.71;100.00
43364;BME280;40636;52.424;-1.948;2023-02-03T04:08:21;100997.56;;;8.74;100.00
43364;BME280;40636;52.424;-1.948;2023-02-03T04:10:48;101002.19;;;8.74;100.00
43364;BME280;40636;52.424;-1.948;2023-02-03T04:13:14;101022.81;;;8.76;100.00
43364;BME280;40636;52.424;-1.948;2023-02-03T04:15:41;101023.25;;;8.73;100.00
43364;BME280;40636;52.424;-1.948;2023-02-03T04:18:11;101019.88;;;8.64;100.00
43364;BME280;40636;52.424;-1.948;2023-02-03T04:20:39;101011.88;;;8.56;100.00
43364;BME280;40636;52.424;-1.948;2023-02-03T04:23:06;101016.31;;;8.51;100.00
43364;BME280;40636;52.424;-1.948;2023-02-03T04:25:33;101003.28;;;8.46;100.00
43364;BME280;40636;52.424;-1.948;2023-02-03T04:28:00;101010.22;;;8.42;100.00
43364;BME280;40636;52.424;-1.948;2023-02-03T04:30:27;101020.75;;;8.45;100.00
43364;BME280;40636;52.424;-1.948;2023-02-03T04:32:54;101016.50;;;8.49;100.00
43364;BME280;40636;52.424;-1.948;2023-02-03T04:35:21;101026.63;;;8.42;100.00
43364;BME280;40636;52.424;-1.948;2023-02-03T04:37:47;101023.69;;;8.37;100.00
43364;BME280;40636;52.424;-1.948;2023-02-03T04:40:14;101022.38;;;8.33;100.00
43364;BME280;40636;52.424;-1.948;2023-02-03T04:42:41;101039.19;;;8.30;100.00
43364;BME280;40636;52.424;-1.948;2023-02-03T04:45:10;101047.84;;;8.27;100.00
43364;BME280;40636;52.424;-1.948;2023-02-03T04:47:37;101053.94;;;8.29;100.00
43364;BME280;40636;52.424;-1.948;2023-02-03T04:50:05;101063.41;;;8.33;100.00
43364;BME280;40636;52.424;-1.948;2023-02-03T04:52:31;101058.41;;;8.36;100.00
43364;BME280;40636;52.424;-1.948;2023-02-03T04:54:58;101067.44;;;8.37;100.00
43364;BME280;40636;52.424;-1.948;2023-02-03T04:57:25;101057.09;;;8.32;100.00
43364;BME280;40636;52.424;-1.948;2023-02-03T04:59:51;101054.78;;;8.36;100.00
43364;BME280;40636;52.424;-1.948;2023-02-03T05:02:18;101064.03;;;8.35;100.00
43364;BME280;40636;52.424;-1.948;2023-02-03T05:04:45;101048.06;;;8.32;100.00
43364;BME280;40636;52.424;-1.948;2023-02-03T05:07:11;101056.25;;;8.32;100.00
43364;BME280;40636;52.424;-1.948;2023-02-03T05:09:38;101048.88;;;8.26;100.00
43364;BME280;40636;52.424;-1.948;2023-02-03T05:12:05;101052.03;;;8.23;100.00
43364;BME280;40636;52.424;-1.948;2023-02-03T05:14:32;101056.00;;;8.20;100.00
43364;BME280;40636;52.424;-1.948;2023-02-03T05:16:58;101061.47;;;8.20;100.00
43364;BME280;40636;52.424;-1.948;2023-02-03T05:19:25;101049.50;;;8.14;100.00
43364;BME280;40636;52.424;-1.948;2023-02-03T05:21:52;101064.22;;;8.13;100.00
43364;BME280;40636;52.424;-1.948;2023-02-03T05:24:18;101056.63;;;8.16;100.00
43364;BME280;40636;52.424;-1.948;2023-02-03T05:26:45;101057.03;;;8.12;100.00
43364;BME280;40636;52.424;-1.948;2023-02-03T05:29:12;101055.78;;;8.08;100.00
43364;BME280;40636;52.424;-1.948;2023-02-03T05:31:38;101067.13;;;8.05;100.00
43364;BME280;40636;52.424;-1.948;2023-02-03T05:34:05;101060.63;;;8.06;100.00
43364;BME280;40636;52.424;-1.948;2023-02-03T05:36:32;101062.72;;;8.04;100.00
43364;BME280;40636;52.424;-1.948;2023-02-03T05:38:58;101072.59;;;8.05;100.00
43364;BME280;40636;52.424;-1.948;2023-02-03T05:41:25;101073.00;;;8.02;100.00
43364;BME280;40636;52.424;-1.948;2023-02-03T05:44:10;101080.16;;;8.03;100.00
43364;BME280;40636;52.424;-1.948;2023-02-03T05:46:37;101069.66;;;8.00;100.00
43364;BME280;40636;52.424;-1.948;2023-02-03T05:49:04;101074.28;;;8.00;100.00
43364;BME280;40636;52.424;-1.948;2023-02-03T05:51:30;101077.41;;;8.03;100.00
43364;BME280;40636;52.424;-1.948;2023-02-03T05:53:57;101078.69;;;8.01;100.00
43364;BME280;40636;52.424;-1.948;2023-02-03T05:56:24;101075.97;;;8.01;100.00
43364;BME280;40636;52.424;-1.948;2023-02-03T05:58:51;101078.69;;;8.01;100.00
43364;BME280;40636;52.424;-1.948;2023-02-03T06:01:19;101078.88;;;7.99;100.00
43364;BME280;40636;52.424;-1.948;2023-02-03T06:03:46;101083.50;;;7.99;100.00
43364;BME280;40636;52.424;-1.948;2023-02-03T06:06:13;101092.53;;;7.93;100.00
43364;BME280;40636;52.424;-1.948;2023-02-03T06:08:40;101097.38;;;7.91;100.00
43364;BME280;40636;52.424;-1.948;2023-02-03T06:11:08;101105.97;;;7.87;100.00
43364;BME280;40636;52.424;-1.948;2023-02-03T06:13:35;101113.56;;;7.92;100.00
43364;BME280;40636;52.424;-1.948;2023-02-03T06:16:01;101124.50;;;7.92;100.00
43364;BME280;40636;52.424;-1.948;2023-02-03T06:18:28;101129.97;;;7.92;100.00
43364;BME280;40636;52.424;-1.948;2023-02-03T06:20:55;101146.13;;;7.87;100.00
43364;BME280;40636;52.424;-1.948;2023-02-03T06:23:21;101147.56;;;7.83;100.00
43364;BME280;40636;52.424;-1.948;2023-02-03T06:25:49;101145.47;;;7.85;100.00
43364;BME280;40636;52.424;-1.948;2023-02-03T06:28:16;101151.16;;;7.83;100.00
43364;BME280;40636;52.424;-1.948;2023-02-03T06:30:43;101142.97;;;7.83;100.00
43364;BME280;40636;52.424;-1.948;2023-02-03T06:33:10;101145.47;;;7.85;100.00
43364;BME280;40636;52.424;-1.948;2023-02-03T06:35:37;101141.91;;;7.84;100.00
43364;BME280;40636;52.424;-1.948;2023-02-03T06:38:03;101149.25;;;7.84;100.00
43364;BME280;40636;52.424;-1.948;2023-02-03T06:40:30;101156.41;;;7.85;100.00
43364;BME280;40636;52.424;-1.948;2023-02-03T06:42:57;101150.94;;;7.85;100.00
43364;BME280;40636;52.424;-1.948;2023-02-03T06:45:24;101150.53;;;7.88;100.00
43364;BME280;40636;52.424;-1.948;2023-02-03T06:47:51;101161.06;;;7.91;100.00
43364;BME280;40636;52.424;-1.948;2023-02-03T06:50:18;101155.63;;;7.91;100.00
43364;BME280;40636;52.424;-1.948;2023-02-03T06:52:44;101147.81;;;7.88;100.00
43364;BME280;40636;52.424;-1.948;2023-02-03T06:55:11;101141.72;;;7.86;100.00
43364;BME280;40636;52.424;-1.948;2023-02-03T06:57:45;101152.59;;;7.79;100.00
43364;BME280;40636;52.424;-1.948;2023-02-03T07:00:14;101150.47;;;7.75;100.00
43364;BME280;40636;52.424;-1.948;2023-02-03T07:02:44;101158.69;;;7.75;100.00
43364;BME280;40636;52.424;-1.948;2023-02-03T07:05:11;101167.53;;;7.77;100.00
43364;BME280;40636;52.424;-1.948;2023-02-03T07:07:38;101168.75;;;7.74;100.00
43364;BME280;40636;52.424;-1.948;2023-02-03T07:10:05;101157.00;;;7.74;100.00
43364;BME280;40636;52.424;-1.948;2023-02-03T07:12:32;101159.06;;;7.72;100.00
43364;BME280;40636;52.424;-1.948;2023-02-03T07:14:59;101152.13;;;7.69;100.00
43364;BME280;40636;52.424;-1.948;2023-02-03T07:17:26;101158.44;;;7.70;100.00
43364;BME280;40636;52.424;-1.948;2023-02-03T07:19:52;101156.34;;;7.72;100.00
43364;BME280;40636;52.424;-1.948;2023-02-03T07:22:19;101158.03;;;7.73;100.00
43364;BME280;40636;52.424;-1.948;2023-02-03T07:24:46;101158.84;;;7.67;100.00
43364;BME280;40636;52.424;-1.948;2023-02-03T07:27:12;101159.88;;;7.66;100.00
43364;BME280;40636;52.424;-1.948;2023-02-03T07:29:39;101158.59;;;7.61;100.00
43364;BME280;40636;52.424;-1.948;2023-02-03T07:32:06;101169.91;;;7.58;100.00
43364;BME280;40636;52.424;-1.948;2023-02-03T07:34:32;101155.63;;;7.56;100.00
43364;BME280;40636;52.424;-1.948;2023-02-03T07:36:59;101158.75;;;7.53;100.00
43364;BME280;40636;52.424;-1.948;2023-02-03T07:39:26;101160.84;;;7.51;100.00
43364;BME280;40636;52.424;-1.948;2023-02-03T07:41:53;101162.94;;;7.49;100.00
43364;BME280;40636;52.424;-1.948;2023-02-03T07:44:19;101163.75;;;7.43;100.00
43364;BME280;40636;52.424;-1.948;2023-02-03T07:46:46;101168.38;;;7.43;100.00
43364;BME280;40636;52.424;-1.948;2023-02-03T07:49:14;101171.31;;;7.41;100.00
43364;BME280;40636;52.424;-1.948;2023-02-03T07:51:42;101178.66;;;7.41;100.00
43364;BME280;40636;52.424;-1.948;2023-02-03T07:54:08;101185.97;;;7.40;100.00
43364;BME280;40636;52.424;-1.948;2023-02-03T07:56:35;101187.44;;;7.36;100.00
43364;BME280;40636;52.424;-1.948;2023-02-03T07:59:02;101197.72;;;7.34;100.00
43364;BME280;40636;52.424;-1.948;2023-02-03T08:01:29;101187.84;;;7.33;100.00
43364;BME280;40636;52.424;-1.948;2023-02-03T08:03:56;101189.31;;;7.35;100.00
43364;BME280;40636;52.424;-1.948;2023-02-03T08:06:24;101192.63;;;7.31;100.00
43364;BME280;40636;52.424;-1.948;2023-02-03T08:08:51;101198.97;;;7.31;100.00
43364;BME280;40636;52.424;-1.948;2023-02-03T08:11:19;101199.81;;;7.32;100.00
43364;BME280;40636;52.424;-1.948;2023-02-03T08:13:46;101203.56;;;7.31;100.00
43364;BME280;40636;52.424;-1.948;2023-02-03T08:16:12;101195.38;;;7.31;100.00
43364;BME280;40636;52.424;-1.948;2023-02-03T08:18:42;101209.00;;;7.31;100.00
43364;BME280;40636;52.424;-1.948;2023-02-03T08:21:10;101211.75;;;7.31;100.00
43364;BME280;40636;52.424;-1.948;2023-02-03T08:23:36;101213.63;;;7.30;100.00
43364;BME280;40636;52.424;-1.948;2023-02-03T08:26:03;101211.56;;;7.32;100.00
43364;BME280;40636;52.424;-1.948;2023-02-03T08:28:30;101215.97;;;7.33;100.00
43364;BME280;40636;52.424;-1.948;2023-02-03T08:30:56;101227.34;;;7.37;100.00
43364;BME280;40636;52.424;-1.948;2023-02-03T08:33:23;101231.38;;;7.41;100.00
43364;BME280;40636;52.424;-1.948;2023-02-03T08:35:50;101238.16;;;7.45;100.00
43364;BME280;40636;52.424;-1.948;2023-02-03T08:38:17;101244.47;;;7.52;100.00
43364;BME280;40636;52.424;-1.948;2023-02-03T08:40:44;101244.09;;;7.55;100.00
43364;BME280;40636;52.424;-1.948;2023-02-03T08:43:10;101256.31;;;7.59;100.00
43364;BME280;40636;52.424;-1.948;2023-02-03T08:45:39;101263.47;;;7.60;100.00
43364;BME280;40636;52.424;-1.948;2023-02-03T08:48:06;101259.69;;;7.61;100.00
43364;BME280;40636;52.424;-1.948;2023-02-03T08:50:33;101258.00;;;7.60;100.00
43364;BME280;40636;52.424;-1.948;2023-02-03T08:53:00;101269.56;;;7.62;100.00
43364;BME280;40636;52.424;-1.948;2023-02-03T08:55:27;101268.53;;;7.63;100.00
43364;BME280;40636;52.424;-1.948;2023-02-03T08:57:54;101268.13;;;7.67;100.00
43364;BME280;40636;52.424;-1.948;2023-02-03T09:00:21;101270.84;;;7.67;100.00
43364;BME280;40636;52.424;-1.948;2023-02-03T09:02:48;101264.78;;;7.71;100.00
43364;BME280;40636;52.424;-1.948;2023-02-03T09:05:15;101266.28;;;7.74;100.00
43364;BME280;40636;52.424;-1.948;2023-02-03T09:07:43;101266.53;;;7.79;100.00
43364;BME280;40636;52.424;-1.948;2023-02-03T09:10:10;101263.78;;;7.79;100.00
43364;BME280;40636;52.424;-1.948;2023-02-03T09:12:37;101270.56;;;7.83;100.00
43364;BME280;40636;52.424;-1.948;2023-02-03T09:15:04;101280.69;;;7.89;100.00
43364;BME280;40636;52.424;-1.948;2023-02-03T09:17:32;101277.56;;;7.92;100.00
43364;BME280;40636;52.424;-1.948;2023-02-03T09:20:01;101278.84;;;7.96;100.00
43364;BME280;40636;52.424;-1.948;2023-02-03T09:22:28;101292.31;;;7.98;100.00
43364;BME280;40636;52.424;-1.948;2023-02-03T09:24:56;101283.09;;;8.05;100.00
43364;BME280;40636;52.424;-1.948;2023-02-03T09:27:22;101289.66;;;8.11;100.00
43364;BME280;40636;52.424;-1.948;2023-02-03T09:29:49;101286.31;;;8.16;100.00
43364;BME280;40636;52.424;-1.948;2023-02-03T09:32:41;101296.44;;;8.22;100.00
43364;BME280;40636;52.424;-1.948;2023-02-03T09:35:08;101299.59;;;8.25;100.00
43364;BME280;40636;52.424;-1.948;2023-02-03T09:37:37;101292.47;;;8.31;100.00
43364;BME280;40636;52.424;-1.948;2023-02-03T09:40:05;101288.97;;;8.37;100.00
43364;BME280;40636;52.424;-1.948;2023-02-03T09:42:48;101300.78;;;8.44;100.00
43364;BME280;40636;52.424;-1.948;2023-02-03T09:45:27;101304.41;;;8.51;100.00
43364;BME280;40636;52.424;-1.948;2023-02-03T09:47:59;101305.03;;;8.53;100.00
43364;BME280;40636;52.424;-1.948;2023-02-03T09:50:31;101312.84;;;8.56;100.00
43364;BME280;40636;52.424;-1.948;2023-02-03T09:53:04;101307.19;;;8.64;100.00
43364;BME280;40636;52.424;-1.948;2023-02-03T10:00:43;101316.09;;;8.80;100.00
43364;BME280;40636;52.424;-1.948;2023-02-03T10:03:27;101321.78;;;8.85;100.00
43364;BME280;40636;52.424;-1.948;2023-02-03T10:06:36;101324.34;;;8.93;100.00
43364;BME280;40636;52.424;-1.948;2023-02-03T10:09:28;101321.44;;;9.01;100.00
43364;BME280;40636;52.424;-1.948;2023-02-03T10:15:36;101338.50;;;9.17;100.00
43364;BME280;40636;52.424;-1.948;2023-02-03T10:18:27;101344.66;;;9.25;100.00
43364;BME280;40636;52.424;-1.948;2023-02-03T10:20:42;101345.50;;;9.32;100.00
43364;BME280;40636;52.424;-1.948;2023-02-03T10:23:29;101351.66;;;9.41;100.00
43364;BME280;40636;52.424;-1.948;2023-02-03T10:25:58;101357.78;;;9.50;100.00
43364;BME280;40636;52.424;-1.948;2023-02-03T10:28:30;101358.41;;;9.58;100.00
43364;BME280;40636;52.424;-1.948;2023-02-03T10:30:59;101367.91;;;9.69;100.00
43364;BME280;40636;52.424;-1.948;2023-02-03T10:33:28;101364.13;;;9.77;100.00
43364;BME280;40636;52.424;-1.948;2023-02-03T10:41:21;101385.84;;;10.05;100.00
43364;BME280;40636;52.424;-1.948;2023-02-03T10:43:50;101383.06;;;10.11;100.00
43364;BME280;40636;52.424;-1.948;2023-02-03T10:46:30;101380.34;;;10.18;100.00
43364;BME280;40636;52.424;-1.948;2023-02-03T10:48:58;101381.38;;;10.24;100.00
43364;BME280;40636;52.424;-1.948;2023-02-03T10:51:27;101389.41;;;10.25;100.00
43364;BME280;40636;52.424;-1.948;2023-02-03T10:53:57;101389.84;;;10.29;100.00
43364;BME280;40636;52.424;-1.948;2023-02-03T10:56:31;101391.94;;;10.33;100.00
43364;BME280;40636;52.424;-1.948;2023-02-03T10:59:00;101392.78;;;10.40;100.00
43364;BME280;40636;52.424;-1.948;2023-02-03T11:01:47;101393.00;;;10.46;100.00
43364;BME280;40636;52.424;-1.948;2023-02-03T11:04:24;101397.84;;;10.50;100.00
43364;BME280;40636;52.424;-1.948;2023-02-03T11:06:58;101394.41;;;10.61;100.00
43364;BME280;40636;52.424;-1.948;2023-02-03T11:09:37;101392.09;;;10.65;100.00
43364;BME280;40636;52.424;-1.948;2023-02-03T11:12:18;101392.06;;;10.72;100.00
43364;BME280;40636;52.424;-1.948;2023-02-03T11:14:47;101391.22;;;10.78;100.00
43364;BME280;40636;52.424;-1.948;2023-02-03T11:17:21;101400.25;;;10.85;100.00
43364;BME280;40636;52.424;-1.948;2023-02-03T11:19:50;101391.34;;;10.96;100.00
43364;BME280;40636;52.424;-1.948;2023-02-03T11:22:34;101395.53;;;10.99;100.00
43364;BME280;40636;52.424;-1.948;2023-02-03T11:25:04;101391.94;;;11.05;100.00
43364;BME280;40636;52.424;-1.948;2023-02-03T11:27:41;101399.34;;;11.04;100.00
43364;BME280;40636;52.424;-1.948;2023-02-03T11:32:39;101384.78;;;10.97;100.00
43364;BME280;40636;52.424;-1.948;2023-02-03T11:35:17;101397.03;;;11.01;100.00
43364;BME280;40636;52.424;-1.948;2023-02-03T11:37:48;101390.22;;;11.10;100.00
43364;BME280;40636;52.424;-1.948;2023-02-03T11:45:26;101401.41;;;11.15;100.00
43364;BME280;40636;52.424;-1.948;2023-02-03T11:50:44;101416.63;;;11.11;100.00
43364;BME280;40636;52.424;-1.948;2023-02-03T11:56:00;101427.13;;;11.28;100.00
43364;BME280;40636;52.424;-1.948;2023-02-03T12:07:10;101434.59;;;11.52;100.00
43364;BME280;40636;52.424;-1.948;2023-02-03T12:16:07;101412.25;;;11.42;100.00
43364;BME280;40636;52.424;-1.948;2023-02-03T12:27:57;101419.00;;;11.39;100.00
43364;BME280;40636;52.424;-1.948;2023-02-03T12:30:36;101427.91;;;11.41;100.00
43364;BME280;40636;52.424;-1.948;2023-02-03T12:36:14;101428.84;;;11.60;100.00
43364;BME280;40636;52.424;-1.948;2023-02-03T12:38:49;101423.53;;;11.65;100.00
43364;BME280;40636;52.424;-1.948;2023-02-03T12:41:23;101438.09;;;11.73;100.00
43364;BME280;40636;52.424;-1.948;2023-02-03T12:43:57;101430.00;;;11.78;100.00
43364;BME280;40636;52.424;-1.948;2023-02-03T12:49:02;101423.19;;;11.80;100.00
43364;BME280;40636;52.424;-1.948;2023-02-03T12:51:40;101427.25;;;11.78;100.00
43364;BME280;40636;52.424;-1.948;2023-02-03T12:54:28;101436.31;;;11.85;100.00
43364;BME280;40636;52.424;-1.948;2023-02-03T12:57:04;101433.56;;;11.85;100.00
43364;BME280;40636;52.424;-1.948;2023-02-03T12:59:33;101432.97;;;11.83;100.00
43364;BME280;40636;52.424;-1.948;2023-02-03T13:02:17;101434.81;;;11.89;100.00
43364;BME280;40636;52.424;-1.948;2023-02-03T13:04:58;101427.81;;;11.93;100.00
43364;BME280;40636;52.424;-1.948;2023-02-03T13:07:46;101434.38;;;11.92;100.00
43364;BME280;40636;52.424;-1.948;2023-02-03T13:10:27;101435.28;;;11.86;100.00
43364;BME280;40636;52.424;-1.948;2023-02-03T13:12:57;101426.63;;;11.82;100.00
43364;BME280;40636;52.424;-1.948;2023-02-03T13:15:29;101432.34;;;11.74;100.00
43364;BME280;40636;52.424;-1.948;2023-02-03T13:18:22;101421.78;;;11.71;100.00
43364;BME280;40636;52.424;-1.948;2023-02-03T13:20:52;101430.69;;;11.66;100.00
43364;BME280;40636;52.424;-1.948;2023-02-03T13:23:20;101429.88;;;11.66;100.00
43364;BME280;40636;52.424;-1.948;2023-02-03T13:28:49;101426.31;;;11.59;100.00
43364;BME280;40636;52.424;-1.948;2023-02-03T13:31:35;101428.03;;;11.53;100.00
43364;BME280;40636;52.424;-1.948;2023-02-03T13:39:41;101439.56;;;11.30;100.00
43364;BME280;40636;52.424;-1.948;2023-02-03T13:42:26;101443.38;;;11.29;100.00
43364;BME280;40636;52.424;-1.948;2023-02-03T13:47:49;101432.63;;;11.28;100.00
43364;BME280;40636;52.424;-1.948;2023-02-03T13:50:28;101437.06;;;11.29;100.00
43364;BME280;40636;52.424;-1.948;2023-02-03T13:53:05;101423.94;;;11.31;100.00
43364;BME280;40636;52.424;-1.948;2023-02-03T13:55:42;101427.97;;;11.22;100.00
43364;BME280;40636;52.424;-1.948;2023-02-03T13:58:25;101424.63;;;11.20;100.00
43364;BME280;40636;52.424;-1.948;2023-02-03T14:05:51;101432.63;;;11.28;100.00
43364;BME280;40636;52.424;-1.948;2023-02-03T14:16:51;101436.56;;;11.38;100.00
43364;BME280;40636;52.424;-1.948;2023-02-03T14:21:51;101440.63;;;11.29;100.00
43364;BME280;40636;52.424;-1.948;2023-02-03T14:24:19;101430.53;;;11.23;100.00
43364;BME280;40636;52.424;-1.948;2023-02-03T14:26:49;101430.13;;;11.20;100.00
43364;BME280;40636;52.424;-1.948;2023-02-03T14:29:33;101441.94;;;11.20;100.00
43364;BME280;40636;52.424;-1.948;2023-02-03T14:32:05;101432.25;;;11.17;100.00
43364;BME280;40636;52.424;-1.948;2023-02-03T14:34:51;101441.53;;;11.16;100.00
43364;BME280;40636;52.424;-1.948;2023-02-03T14:37:21;101442.41;;;11.10;100.00
43364;BME280;40636;52.424;-1.948;2023-02-03T14:46:38;101445.41;;;11.02;100.00
43364;BME280;40636;52.424;-1.948;2023-02-03T14:54:48;101450.50;;;10.92;100.00